Time;durP1;ratioP1;P1;durP2;ratioP2;P2;SDS_P1;SDS_P2;PMS_P1;PMS_P2;Temp;Humidity;BMP_temperature;BMP_pressure;BME280_temperature;BME280_humidity;BME280_pressure;Samples;Min_cycle;Max_cycle;Signal;HPM_P1;HPM_P2
2022/08/31 00:06:20;;;;;;;;;42.00;36.00;;;;;24.12;44.47;99094.91;6244002;27;96889;-55
2022/08/31 00:09:23;;;;;;;;;43.75;38.00;;;;;24.12;44.47;99092.13;6240016;27;98340;-55
2022/08/31 00:12:27;;;;;;;;;43.60;37.60;;;;;24.12;44.61;99084.69;6241921;27;97038;-55
2022/08/31 00:15:30;;;;;;;;;38.25;35.00;;;;;24.00;45.10;99073.34;6264842;27;98069;-58
2022/08/31 00:18:35;;;;;;;;;39.00;35.00;;;;;24.10;44.98;99089.69;6259156;27;96656;-55
2022/08/31 00:21:39;;;;;;;;;43.00;38.00;;;;;24.12;45.10;99087.44;6248755;27;96963;-58
2022/08/31 00:24:43;;;;;;;;;38.50;35.00;;;;;24.14;45.08;99092.66;6240272;27;96976;-56
2022/08/31 00:27:46;;;;;;;;;36.20;33.00;;;;;24.15;44.70;99095.09;6245871;27;97475;-58
2022/08/31 00:30:49;;;;;;;;;43.60;38.00;;;;;24.16;44.93;99095.91;6264235;27;97133;-56
2022/08/31 00:33:55;;;;;;;;;39.00;35.00;;;;;24.14;45.27;99092.66;6263452;27;97415;-55
2022/08/31 00:37:00;;;;;;;;;38.00;35.00;;;;;24.01;45.31;99069.47;6266134;27;97528;-55
2022/08/31 00:40:05;;;;;;;;;42.00;36.60;;;;;23.96;45.56;99066.00;6252703;27;97452;-57
2022/08/31 00:43:11;;;;;;;;;41.60;36.40;;;;;24.15;45.58;99086.81;6249961;27;96893;-57
2022/08/31 00:46:17;;;;;;;;;38.40;35.00;;;;;24.17;45.32;99092.91;6246322;27;96904;-55
2022/08/31 00:49:26;;;;;;;;;38.60;35.00;;;;;24.14;45.11;99085.19;6237906;27;97722;-56
2022/08/31 00:52:35;;;;;;;;;46.00;39.00;;;;;24.20;45.35;99082.38;6244277;27;96805;-57
2022/08/31 00:55:40;;;;;;;;;42.00;36.00;;;;;24.21;45.46;99082.06;6244056;27;97488;-58
2022/08/31 00:58:44;;;;;;;;;41.00;36.40;;;;;24.21;45.18;99084.81;6249727;27;97248;-54
2022/08/31 01:01:56;;;;;;;;;46.00;39.00;;;;;24.21;45.20;99084.00;6237075;27;97549;-55
2022/08/31 01:05:01;;;;;;;;;44.60;38.60;;;;;24.02;45.08;99051.84;6236134;27;97066;-55
2022/08/31 01:08:06;;;;;;;;;43.40;38.00;;;;;24.19;45.39;99078.78;6236120;27;98225;-55
2022/08/31 01:11:10;;;;;;;;;41.00;36.00;;;;;24.20;45.42;99079.59;6243170;27;98237;-55
2022/08/31 01:14:14;;;;;;;;;43.75;38.00;;;;;24.19;45.33;99081.53;6242202;27;96894;-56
2022/08/31 01:17:18;;;;;;;;;43.00;37.50;;;;;24.20;45.54;99085.13;6250065;27;97877;-56
2022/08/31 01:20:28;;;;;;;;;44.80;38.40;;;;;24.19;45.72;99086.25;6264814;27;97207;-57
2022/08/31 01:23:37;;;;;;;;;46.80;39.80;;;;;24.21;45.29;99095.03;6248833;27;97457;-58
2022/08/31 01:26:40;;;;;;;;;41.00;36.00;;;;;24.05;45.59;99064.16;6249569;27;96600;-58
2022/08/31 01:29:44;;;;;;;;;46.40;40.00;;;;;24.16;45.04;99076.63;6262025;27;97506;-55
2022/08/31 01:32:50;;;;;;;;;39.50;35.50;;;;;24.14;45.07;99082.44;6243543;27;97542;-57
2022/08/31 01:35:55;;;;;;;;;45.00;38.60;;;;;24.12;45.24;99087.44;6245139;27;98173;-57
2022/08/31 01:39:00;;;;;;;;;45.80;39.40;;;;;24.09;45.85;99092.75;6261698;27;97425;-58
2022/08/31 01:42:03;;;;;;;;;46.00;39.00;;;;;24.04;45.68;99092.84;6245066;27;97091;-56
2022/08/31 01:45:08;;;;;;;;;46.20;39.60;;;;;24.00;46.16;99091.81;6236506;28;97471;-58
2022/08/31 01:48:13;;;;;;;;;35.75;33.25;;;;;23.91;45.98;99097.22;6251988;27;96766;-56
2022/08/31 01:51:18;;;;;;;;;43.00;37.25;;;;;23.93;46.07;99096.91;6254064;27;97516;-58
2022/08/31 01:54:26;;;;;;;;;42.00;37.00;;;;;23.90;45.79;99095.56;6237519;27;97527;-57
2022/08/31 01:57:29;;;;;;;;;50.60;43.20;;;;;23.84;46.07;99096.81;6237091;27;97498;-55
2022/08/31 02:00:55;;;;;;;;;45.00;38.00;;;;;23.80;45.79;99098.50;6243715;27;96981;-58
2022/08/31 02:03:58;;;;;;;;;44.60;38.60;;;;;23.75;45.93;99102.16;6258463;27;97540;-56
2022/08/31 02:07:01;;;;;;;;;40.00;35.80;;;;;23.63;45.97;99090.03;6262029;27;96380;-58
2022/08/31 02:10:10;;;;;;;;;42.00;36.40;;;;;23.67;46.07;99102.88;6243346;27;96891;-57
2022/08/31 02:13:15;;;;;;;;;39.75;35.75;;;;;23.61;46.16;99087.56;6253679;27;96969;-59
2022/08/31 02:16:19;;;;;;;;;35.80;33.00;;;;;23.58;46.29;99092.88;6257112;27;96710;-56
2022/08/31 02:19:22;;;;;;;;;33.25;32.00;;;;;23.53;46.45;99098.47;6254233;27;97859;-55
2022/08/31 02:22:25;;;;;;;;;38.00;35.00;;;;;23.48;46.40;99082.84;6259158;27;96830;-58
2022/08/31 02:25:32;;;;;;;;;38.40;35.00;;;;;23.47;46.33;99092.22;6239708;27;97420;-57
2022/08/31 02:28:37;;;;;;;;;39.50;35.50;;;;;23.45;46.66;99082.66;6236117;28;97551;-56
2022/08/31 02:31:40;;;;;;;;;42.00;36.00;;;;;23.42;46.74;99080.44;6254301;27;97378;-56
2022/08/31 02:34:44;;;;;;;;;39.50;35.00;;;;;23.40;46.77;99077.19;6236157;27;97178;-58
2022/08/31 02:37:48;;;;;;;;;40.00;36.00;;;;;23.38;46.67;99084.91;6236944;27;97402;-55
2022/08/31 02:40:53;;;;;;;;;41.40;36.40;;;;;23.33;46.83;99081.13;6249657;27;97451;-58
2022/08/31 02:43:57;;;;;;;;;40.00;35.50;;;;;23.31;46.53;99090.81;6277083;27;97086;-58
2022/08/31 02:47:01;;;;;;;;;39.60;35.60;;;;;23.08;46.53;99055.97;6259705;27;97465;-58
2022/08/31 02:50:38;;;;;;;;;38.00;34.60;;;;;23.23;46.45;99092.31;6260386;27;97087;-56
2022/08/31 02:53:41;;;;;;;;;47.50;40.00;;;;;23.21;46.79;99093.72;6250602;27;98211;-56
2022/08/31 02:56:47;;;;;;;;;39.80;35.00;;;;;23.18;46.59;99089.63;6256691;27;97408;-55
2022/08/31 02:59:52;;;;;;;;;46.25;39.75;;;;;23.15;46.54;99090.25;6252203;27;97152;-58
2022/08/31 03:02:55;;;;;;;;;37.60;33.40;;;;;23.14;46.73;99087.78;6258110;27;97044;-55
2022/08/31 03:05:59;;;;;;;;;40.00;36.00;;;;;23.11;46.55;99083.72;6258784;27;96792;-55
2022/08/31 03:09:02;;;;;;;;;44.60;38.60;;;;;23.11;46.36;99085.66;6248033;27;96746;-54
2022/08/31 03:12:07;;;;;;;;;40.75;36.00;;;;;23.06;46.43;99092.03;6236308;27;96521;-55
2022/08/31 03:15:11;;;;;;;;;41.00;36.00;;;;;23.01;46.22;99081.13;6253374;27;96892;-56
2022/08/31 03:18:15;;;;;;;;;42.00;37.00;;;;;23.01;46.32;99092.13;6247877;27;97112;-55
2022/08/31 03:21:18;;;;;;;;;41.80;36.80;;;;;23.00;46.25;99087.72;6243342;27;96749;-56
2022/08/31 03:24:22;;;;;;;;;39.25;35.25;;;;;22.97;46.71;99090.25;6261126;27;97360;-58
2022/08/31 03:27:31;;;;;;;;;42.00;37.00;;;;;22.92;45.94;99093.88;6264603;27;97192;-55
2022/08/31 03:30:35;;;;;;;;;43.80;37.40;;;;;22.91;46.54;99100.50;6260358;27;97445;-55
2022/08/31 03:33:42;;;;;;;;;43.00;37.50;;;;;22.89;46.29;99098.06;6254691;27;97577;-58
2022/08/31 03:36:46;;;;;;;;;40.50;36.00;;;;;22.89;46.49;99097.22;6238907;27;97041;-56
2022/08/31 03:39:50;;;;;;;;;42.60;37.20;;;;;22.86;46.59;99098.66;6259119;27;96817;-55
2022/08/31 03:42:56;;;;;;;;;40.20;35.20;;;;;22.85;46.38;99093.44;6240047;27;97251;-55
2022/08/31 03:46:03;;;;;;;;;44.40;38.40;;;;;22.83;46.53;99090.16;6278344;27;96408;-54
2022/08/31 03:49:15;;;;;;;;;45.00;39.00;;;;;22.78;46.47;99093.81;6263503;27;96580;-55
2022/08/31 03:52:30;;;;;;;;;46.50;39.50;;;;;22.74;46.52;99092.75;6263245;27;96735;-56
2022/08/31 03:55:44;;;;;;;;;47.00;40.00;;;;;22.72;46.70;99091.44;6256361;27;97691;-58
2022/08/31 03:58:49;;;;;;;;;44.60;38.00;;;;;22.69;46.73;99086.50;6252739;27;97206;-56
2022/08/31 04:02:27;;;;;;;;;45.00;38.00;;;;;22.69;46.53;99087.31;6245928;27;97132;-58
2022/08/31 04:05:52;;;;;;;;;38.67;35.00;;;;;22.69;46.74;99084.56;6247651;27;97400;-57
2022/08/31 04:09:14;;;;;;;;;44.40;38.40;;;;;22.65;46.77;99085.44;6240253;27;97257;-57
2022/08/31 04:12:47;;;;;;;;;43.50;38.00;;;;;22.64;46.64;99086.56;6241830;27;97153;-58
2022/08/31 04:16:11;;;;;;;;;38.20;34.60;;;;;22.67;46.69;99091.47;6246327;27;97771;-56
2022/08/31 04:19:33;;;;;;;;;40.25;36.00;;;;;22.67;46.64;99095.06;6253235;27;97020;-58
2022/08/31 04:22:50;;;;;;;;;39.50;35.25;;;;;22.69;46.57;99092.81;6248089;27;96906;-56
2022/08/31 04:26:16;;;;;;;;;44.00;38.00;;;;;22.73;47.00;99098.56;6261994;27;98084;-55
2022/08/31 04:29:20;;;;;;;;;44.40;38.00;;;;;22.56;46.93;99073.47;6244357;27;97440;-58
2022/08/31 04:32:24;;;;;;;;;43.60;38.00;;;;;22.79;47.33;99106.44;6272743;27;96904;-58
2022/08/31 04:35:29;;;;;;;;;39.20;35.20;;;;;22.84;47.36;99106.38;6238878;27;97564;-58
2022/08/31 04:38:33;;;;;;;;;44.25;38.25;;;;;22.92;47.38;99115.09;6242034;27;96873;-56
2022/08/31 04:41:40;;;;;;;;;38.40;34.40;;;;;22.91;46.93;99099.69;6248895;27;98116;-57
2022/08/31 04:44:46;;;;;;;;;45.25;39.25;;;;;23.07;47.13;99121.16;6253560;27;97140;-57
2022/08/31 04:47:53;;;;;;;;;41.60;35.80;;;;;23.17;47.36;99118.25;6260446;27;97499;-57
2022/08/31 04:51:01;;;;;;;;;38.40;35.00;;;;;23.28;46.81;99118.91;6252901;27;97061;-55
2022/08/31 04:54:07;;;;;;;;;43.00;37.00;;;;;23.31;47.02;99119.13;6247071;27;97516;-59
2022/08/31 04:57:10;;;;;;;;;42.00;36.00;;;;;23.37;46.61;99124.53;6243846;27;96844;-56
2022/08/31 05:00:14;;;;;;;;;46.00;39.40;;;;;23.47;46.32;99118.91;6241861;27;97828;-56
2022/08/31 05:03:41;;;;;;;;;45.00;38.00;;;;;23.56;46.33;99120.69;6249591;27;97505;-58
2022/08/31 05:06:47;;;;;;;;;39.75;35.25;;;;;23.67;46.50;99130.41;6251014;27;96812;-56
2022/08/31 05:09:50;;;;;;;;;49.60;42.20;;;;;23.78;46.42;99121.97;6239017;27;97507;-58
2022/08/31 05:12:54;;;;;;;;;47.00;40.00;;;;;23.87;46.08;99125.66;6244377;27;96626;-58
2022/08/31 05:15:58;;;;;;;;;40.50;36.00;;;;;23.98;46.46;99130.69;6255334;27;97735;-58
2022/08/31 05:19:03;;;;;;;;;40.60;35.60;;;;;24.09;46.28;99132.09;6256565;27;97255;-56
2022/08/31 05:22:07;;;;;;;;;42.80;37.40;;;;;24.22;46.09;99135.22;6245225;27;96754;-58
2022/08/31 05:25:11;;;;;;;;;38.80;34.80;;;;;24.33;46.12;99136.69;6247886;27;96830;-59
2022/08/31 05:28:15;;;;;;;;;45.60;39.00;;;;;24.45;45.85;99140.53;6248064;27;97543;-56
2022/08/31 05:31:19;;;;;;;;;45.40;39.40;;;;;24.55;45.77;99134.00;6247992;27;97115;-57
2022/08/31 05:34:25;;;;;;;;;29.80;28.40;;;;;24.64;44.96;99136.84;6254905;27;97401;-56
2022/08/31 05:37:29;;;;;;;;;52.50;44.25;;;;;24.70;44.98;99136.44;6253762;27;96951;-58
2022/08/31 05:40:32;;;;;;;;;45.80;39.20;;;;;24.79;45.17;99142.88;6252392;27;96980;-56
2022/08/31 05:43:37;;;;;;;;;34.60;32.40;;;;;24.88;44.76;99149.31;6249397;27;97401;-55
2022/08/31 05:46:42;;;;;;;;;19.50;18.75;;;;;24.97;44.23;99139.19;6243342;27;97286;-58
2022/08/31 05:49:48;;;;;;;;;41.40;36.00;;;;;25.03;44.13;99145.41;6250527;27;97574;-58
2022/08/31 05:52:54;;;;;;;;;48.00;41.00;;;;;25.11;43.98;99149.38;6247357;27;97482;-58
2022/08/31 05:56:02;;;;;;;;;41.20;35.20;;;;;25.20;44.01;99145.56;6259667;27;97417;-55
2022/08/31 05:59:05;;;;;;;;;39.80;34.20;;;;;25.28;43.58;99153.09;6251072;27;97887;-58
2022/08/31 06:02:10;;;;;;;;;50.00;43.00;;;;;25.37;43.36;99158.69;6248468;27;98069;-55
2022/08/31 06:05:15;;;;;;;;;43.00;38.00;;;;;25.49;43.73;99158.13;6244737;27;97231;-55
2022/08/31 06:08:22;;;;;;;;;39.60;35.00;;;;;25.62;43.41;99157.28;6251370;27;97647;-56
2022/08/31 06:11:33;;;;;;;;;38.80;35.00;;;;;25.70;42.91;99165.66;6257012;27;97263;-55
2022/08/31 06:14:39;;;;;;;;;43.60;37.40;;;;;25.78;42.98;99177.88;6253472;27;97455;-54
2022/08/31 06:17:47;;;;;;;;;43.40;38.00;;;;;25.89;42.78;99173.75;6247816;27;97103;-55
2022/08/31 06:21:02;;;;;;;;;48.20;41.00;;;;;25.99;42.12;99170.72;6248926;27;97116;-60
2022/08/31 06:24:08;;;;;;;;;42.60;36.40;;;;;26.08;42.85;99181.81;6234157;27;98595;-57
2022/08/31 06:27:14;;;;;;;;;41.60;36.00;;;;;26.19;42.42;99174.91;6253357;27;97610;-58
2022/08/31 06:30:20;;;;;;;;;45.00;38.33;;;;;26.45;41.79;99186.09;6251628;27;97285;-59
2022/08/31 06:33:25;;;;;;;;;54.00;45.20;;;;;26.55;41.34;99183.84;6239125;27;97403;-55
2022/08/31 06:36:41;;;;;;;;;45.00;39.00;;;;;26.64;41.20;99190.22;6250576;27;97425;-55
2022/08/31 06:39:55;;;;;;;;;48.60;41.80;;;;;26.81;40.93;99186.72;6250838;27;97823;-60
2022/08/31 06:43:21;;;;;;;;;38.00;34.40;;;;;27.00;41.07;99180.94;6248378;27;97321;-60
2022/08/31 06:46:49;;;;;;;;;34.60;32.60;;;;;27.22;40.43;99172.47;6245291;27;98174;-56
2022/08/31 06:49:56;;;;;;;;;29.25;28.75;;;;;27.44;40.46;99182.59;6248102;27;97102;-56
2022/08/31 06:53:00;;;;;;;;;30.50;29.25;;;;;27.49;39.79;99191.59;6232331;27;97196;-58
2022/08/31 06:56:25;;;;;;;;;39.20;34.60;;;;;27.46;39.46;99195.00;6238007;27;97660;-56
2022/08/31 06:59:47;;;;;;;;;47.00;41.00;;;;;27.51;40.00;99197.59;6252533;27;97499;-59
2022/08/31 07:03:21;;;;;;;;;24.80;23.80;;;;;27.71;40.25;99198.91;6241777;27;97224;-60
2022/08/31 07:06:31;;;;;;;;;31.60;30.00;;;;;28.00;40.06;99201.03;6254202;27;97494;-58
2022/08/31 07:09:36;;;;;;;;;36.00;33.00;;;;;28.22;38.86;99206.38;6250462;27;97260;-61
2022/08/31 07:12:40;;;;;;;;;31.60;30.60;;;;;28.13;38.56;99175.09;6252797;27;97083;-60
2022/08/31 07:15:45;;;;;;;;;44.50;38.25;;;;;28.43;38.51;99210.06;6249678;27;97368;-57
2022/08/31 07:18:51;;;;;;;;;27.80;27.80;;;;;28.48;37.93;99205.47;6249072;27;97452;-59
2022/08/31 07:21:57;;;;;;;;;33.40;31.60;;;;;28.48;38.38;99213.81;6267553;27;97472;-61
2022/08/31 07:25:02;;;;;;;;;30.00;29.60;;;;;28.60;38.50;99200.84;6258324;27;97164;-59
2022/08/31 07:28:06;;;;;;;;;41.40;36.40;;;;;28.73;37.37;99199.03;6253583;27;97104;-64
2022/08/31 07:31:12;;;;;;;;;36.00;33.00;;;;;28.85;37.90;99213.00;6235984;27;97292;-59
2022/08/31 07:34:18;;;;;;;;;33.20;31.40;;;;;28.97;37.53;99206.75;6254598;27;97314;-58
2022/08/31 07:44:24;;;;;;;;;19.20;18.80;;;;;28.86;37.17;99203.53;6251424;27;97448;-65
2022/08/31 07:47:28;;;;;;;;;33.60;32.00;;;;;28.89;37.26;99210.38;6255125;27;96801;-58
2022/08/31 07:50:32;;;;;;;;;33.80;31.80;;;;;28.82;36.93;99208.97;6256061;27;97373;-57
2022/08/31 07:53:55;;;;;;;;;31.00;30.00;;;;;28.84;37.04;99209.41;6259137;27;96852;-57
2022/08/31 07:57:03;;;;;;;;;27.20;27.00;;;;;29.00;37.20;99215.22;6238119;27;97448;-59
2022/08/31 08:00:13;;;;;;;;;31.40;30.00;;;;;29.12;36.91;99204.22;6244919;27;97163;-60
2022/08/31 08:03:18;;;;;;;;;20.60;20.60;;;;;29.29;37.31;99200.50;6265561;27;97532;-59
2022/08/31 08:06:41;;;;;;;;;21.00;21.00;;;;;29.66;36.70;99207.13;6241607;27;97207;-57
2022/08/31 08:10:07;;;;;;;;;28.00;28.00;;;;;29.95;35.99;99192.31;6253746;27;96932;-54
2022/08/31 08:13:37;;;;;;;;;18.75;18.75;;;;;30.41;36.04;99216.19;6226554;27;97497;-59
2022/08/31 08:17:04;;;;;;;;;29.50;29.50;;;;;30.60;34.99;99216.47;6247810;27;98703;-60
2022/08/31 08:20:14;;;;;;;;;17.20;17.20;;;;;30.74;34.21;99219.72;6258173;27;97475;-57
2022/08/31 08:23:18;;;;;;;;;11.75;11.50;;;;;30.79;33.55;99225.06;6257830;27;97554;-62
2022/08/31 08:26:44;;;;;;;;;22.00;21.00;;;;;30.88;33.84;99225.78;6246424;27;97353;-57
2022/08/31 08:30:13;;;;;;;;;19.75;19.75;;;;;30.93;33.92;99222.78;6244886;27;97487;-58
2022/08/31 08:33:18;;;;;;;;;23.00;23.00;;;;;30.82;33.94;99224.41;6244741;27;97378;-59
2022/08/31 08:36:22;;;;;;;;;30.75;30.00;;;;;30.68;33.81;99225.88;6257954;27;97175;-62
2022/08/31 08:39:27;;;;;;;;;33.50;32.25;;;;;30.57;34.31;99219.16;6256771;27;97140;-57
2022/08/31 08:42:41;;;;;;;;;18.00;17.00;;;;;30.41;34.50;99214.22;6243226;27;97390;-57
2022/08/31 08:45:50;;;;;;;;;24.60;23.60;;;;;30.23;34.57;99218.34;6243343;27;98182;-62
2022/08/31 08:49:00;;;;;;;;;34.75;32.75;;;;;30.13;34.68;99229.91;6262387;27;97750;-58
2022/08/31 08:52:10;;;;;;;;;23.20;23.20;;;;;29.96;34.75;99218.94;6246927;27;97292;-57
2022/08/31 08:55:18;;;;;;;;;26.00;26.00;;;;;29.93;35.40;99220.44;6261198;27;97568;-60
2022/08/31 08:58:24;;;;;;;;;23.50;23.50;;;;;29.92;35.06;99210.47;6263004;27;99007;-61
2022/08/31 09:01:30;;;;;;;;;25.00;25.00;;;;;29.82;34.95;99221.16;6246818;27;97414;-60
2022/08/31 09:04:58;;;;;;;;;31.00;29.80;;;;;29.77;35.81;99216.63;6234414;27;97976;-58
2022/08/31 09:08:55;;;;;;;;;36.75;33.75;;;;;29.84;35.53;99211.34;6251156;27;97449;-58
2022/08/31 09:12:10;;;;;;;;;35.25;32.75;;;;;29.96;35.80;99216.97;6239050;27;97366;-56
2022/08/31 09:15:36;;;;;;;;;38.25;35.00;;;;;29.98;35.25;99211.91;6259356;27;97267;-62
2022/08/31 09:18:51;;;;;;;;;36.00;33.00;;;;;29.87;35.31;99182.88;6255178;27;97410;-61
2022/08/31 09:21:57;;;;;;;;;34.60;32.80;;;;;30.08;35.37;99193.97;6237456;27;97349;-61
2022/08/31 09:25:02;;;;;;;;;28.00;27.75;;;;;30.19;34.77;99191.56;6253747;27;96675;-55
2022/08/31 09:28:36;;;;;;;;;30.00;30.00;;;;;30.28;34.70;99189.50;6251384;27;97448;-59
2022/08/31 09:31:43;;;;;;;;;37.40;33.80;;;;;30.41;34.77;99191.16;6249010;27;97167;-61
2022/08/31 09:34:54;;;;;;;;;19.00;18.00;;;;;30.50;34.24;99183.53;6251755;27;97435;-60
2022/08/31 09:38:00;;;;;;;;;16.60;16.60;;;;;30.47;33.36;99189.81;6232914;28;96620;-59
2022/08/31 09:41:07;;;;;;;;;21.80;21.60;;;;;30.36;33.66;99191.38;6235304;27;98050;-58
2022/08/31 09:44:24;;;;;;;;;21.40;21.40;;;;;30.33;34.18;99186.50;6237794;27;97339;-58
2022/08/31 09:47:49;;;;;;;;;23.20;22.20;;;;;30.25;33.90;99190.22;6240978;27;97204;-60
2022/08/31 09:51:00;;;;;;;;;33.40;31.80;;;;;30.27;34.66;99190.66;6245082;27;96976;-62
2022/08/31 09:57:44;;;;;;;;;40.80;35.80;;;;;30.07;33.81;99179.25;6237453;27;97149;-59
2022/08/31 10:00:50;;;;;;;;;40.75;35.75;;;;;30.04;34.02;99184.69;6242621;27;96957;-59
2022/08/31 10:04:19;;;;;;;;;33.20;31.60;;;;;30.00;34.49;99176.25;6245521;27;96924;-62
2022/08/31 10:07:42;;;;;;;;;31.00;30.00;;;;;30.09;33.93;99176.16;6236356;27;97475;-62
2022/08/31 10:10:46;;;;;;;;;28.00;27.00;;;;;30.22;34.06;99180.56;6238052;27;97558;-58
2022/08/31 10:13:59;;;;;;;;;32.00;30.20;;;;;30.14;33.71;99162.03;6244720;27;96604;-60
2022/08/31 10:17:10;;;;;;;;;40.40;35.40;;;;;30.22;33.84;99180.56;6242402;27;97956;-60
2022/08/31 10:20:19;;;;;;;;;20.60;20.60;;;;;30.12;33.33;99181.81;6254524;27;96410;-57
2022/08/31 10:23:32;;;;;;;;;31.00;30.00;;;;;30.12;34.17;99187.38;6244953;27;96609;-58
2022/08/31 10:26:40;;;;;;;;;34.75;32.50;;;;;30.16;33.53;99179.16;6250861;27;97453;-56
2022/08/31 10:29:54;;;;;;;;;36.00;33.00;;;;;30.16;33.55;99181.13;6247678;27;96610;-58
2022/08/31 10:33:08;;;;;;;;;33.00;32.00;;;;;30.15;33.80;99185.91;6257569;27;97569;-56
2022/08/31 10:36:12;;;;;;;;;30.00;30.00;;;;;29.98;33.76;99170.19;6261954;27;96536;-58
2022/08/31 10:39:27;;;;;;;;;37.60;34.40;;;;;29.92;33.42;99177.13;6260347;27;97974;-61
2022/08/31 10:42:37;;;;;;;;;40.00;36.00;;;;;29.91;34.48;99172.72;6247873;27;97981;-58
2022/08/31 10:45:44;;;;;;;;;43.00;37.60;;;;;29.86;33.82;99172.09;6236181;27;96975;-58
2022/08/31 10:48:53;;;;;;;;;33.00;30.20;;;;;29.83;33.91;99167.22;6237620;27;97082;-54
2022/08/31 10:52:02;;;;;;;;;23.40;23.40;;;;;29.91;33.98;99172.72;6244670;27;97232;-59
2022/08/31 10:55:14;;;;;;;;;30.80;29.80;;;;;29.94;33.46;99168.44;6236387;27;97271;-56
2022/08/31 10:58:26;;;;;;;;;36.00;33.00;;;;;29.95;34.09;99161.75;6239884;27;98155;-58
2022/08/31 11:01:41;;;;;;;;;26.20;26.20;;;;;30.10;34.33;99163.88;6243739;27;97000;-58
2022/08/31 11:04:54;;;;;;;;;24.40;24.00;;;;;30.42;34.09;99164.97;6241766;27;97513;-57
2022/08/31 11:08:06;;;;;;;;;11.40;11.40;;;;;30.55;33.09;99158.25;6236809;27;96980;-60
2022/08/31 11:11:30;;;;;;;;;27.00;27.00;;;;;30.73;33.19;99162.47;6234756;27;97250;-58
2022/08/31 11:14:49;;;;;;;;;15.60;14.60;;;;;30.99;32.42;99154.53;6243199;27;96978;-58
2022/08/31 11:18:10;;;;;;;;;16.40;16.20;;;;;31.09;32.00;99156.06;6239032;27;96728;-58
2022/08/31 11:21:36;;;;;;;;;18.00;17.00;;;;;31.15;31.24;99159.41;6235849;27;97366;-61
2022/08/31 11:25:13;;;;;;;;;16.60;16.40;;;;;31.16;31.10;99155.47;6234855;27;97775;-61
2022/08/31 11:28:32;;;;;;;;;12.00;12.00;;;;;31.17;31.23;99157.91;6237393;27;96981;-60
2022/08/31 11:31:38;;;;;;;;;5.60;5.40;;;;;31.22;30.30;99142.94;6243489;27;97229;-59
2022/08/31 11:34:49;;;;;;;;;14.60;14.60;;;;;31.37;30.46;99144.97;6243801;27;97474;-61
2022/08/31 11:37:55;;;;;;;;;15.25;15.25;;;;;31.41;29.55;99145.91;6233969;28;97462;-60
2022/08/31 11:41:02;;;;;;;;;16.00;15.00;;;;;31.48;30.14;99142.47;6234263;27;97848;-61
2022/08/31 11:44:08;;;;;;;;;8.00;8.00;;;;;31.60;29.89;99131.34;6243216;27;97489;-60
2022/08/31 11:47:33;;;;;;;;;6.50;6.00;;;;;31.79;29.01;99139.84;6253835;27;96738;-61
2022/08/31 11:51:02;;;;;;;;;31.80;30.80;;;;;31.96;28.60;99144.28;6239898;27;97407;-58
2022/08/31 11:54:13;;;;;;;;;9.60;8.60;;;;;32.15;29.43;99141.66;6242806;27;96869;-58
2022/08/31 11:57:20;;;;;;;;;13.40;13.00;;;;;32.21;28.41;99135.44;6239784;27;96776;-61
2022/08/31 12:00:42;;;;;;;;;14.60;14.20;;;;;32.10;28.39;99136.31;6244172;27;97015;-61
2022/08/31 12:04:02;;;;;;;;;23.00;23.00;;;;;32.01;28.19;99132.88;6249474;27;96786;-58
2022/08/31 12:07:07;;;;;;;;;15.40;14.40;;;;;32.04;28.61;99134.94;6241149;27;97466;-59
2022/08/31 12:10:35;;;;;;;;;8.20;8.20;;;;;32.07;28.48;99126.66;6241134;27;97335;-59
2022/08/31 12:13:50;;;;;;;;;13.20;12.60;;;;;32.17;27.90;99128.13;6238394;27;97443;-64
2022/08/31 12:17:08;;;;;;;;;10.00;10.00;;;;;32.14;28.01;99118.53;6242084;27;97539;-58
2022/08/31 12:20:18;;;;;;;;;15.80;15.00;;;;;32.21;28.58;99123.44;6245149;27;97053;-59
2022/08/31 12:23:36;;;;;;;;;9.00;9.00;;;;;32.21;27.66;99123.44;6238009;27;96923;-58
2022/08/31 12:26:50;;;;;;;;;13.00;13.00;;;;;32.08;27.67;99119.09;6252980;27;97379;-58
2022/08/31 12:30:14;;;;;;;;;13.00;12.60;;;;;31.92;28.57;99109.91;6262628;27;97411;-59
2022/08/31 12:33:21;;;;;;;;;12.60;12.60;;;;;31.77;27.28;99111.50;6240491;27;96862;-58
2022/08/31 12:36:28;;;;;;;;;13.00;13.00;;;;;31.75;27.79;99117.44;6241051;27;97242;-59
2022/08/31 12:39:31;;;;;;;;;10.80;10.60;;;;;31.63;27.90;99116.69;6238741;28;97274;-58
2022/08/31 12:42:40;;;;;;;;;19.00;18.20;;;;;31.52;27.97;99107.97;6237537;27;98638;-54
2022/08/31 12:46:08;;;;;;;;;16.00;15.60;;;;;31.55;28.02;99112.84;6245724;27;96989;-53
2022/08/31 12:49:51;;;;;;;;;13.25;13.25;;;;;31.56;27.55;99103.38;6241033;27;97591;-58
2022/08/31 12:53:22;;;;;;;;;10.00;10.00;;;;;31.56;28.08;99108.09;6238670;27;97431;-60
2022/08/31 12:56:35;;;;;;;;;7.20;7.20;;;;;31.59;28.20;99101.84;6246701;27;96872;-61
2022/08/31 12:59:47;;;;;;;;;7.20;7.20;;;;;31.61;27.64;99102.31;6237151;28;98745;-60
2022/08/31 13:03:15;;;;;;;;;22.20;21.60;;;;;31.59;27.71;99102.66;6247160;27;97268;-59
2022/08/31 13:06:26;;;;;;;;;24.00;23.50;;;;;31.44;27.21;99099.78;6237305;27;97672;-57
2022/08/31 13:09:33;;;;;;;;;14.00;14.00;;;;;31.32;27.71;99092.28;6242313;27;97417;-58
2022/08/31 13:12:41;;;;;;;;;21.40;20.20;;;;;31.20;27.13;99090.34;6244782;27;97443;-61
2022/08/31 13:15:44;;;;;;;;;16.60;16.60;;;;;31.11;27.81;99086.91;6239569;27;97255;-59
2022/08/31 13:18:49;;;;;;;;;17.00;17.00;;;;;31.13;28.41;99092.91;6239308;27;97399;-58
2022/08/31 13:21:59;;;;;;;;;16.00;16.00;;;;;31.07;27.63;99085.19;6240114;27;97456;-56
2022/08/31 13:25:15;;;;;;;;;23.00;22.00;;;;;30.98;28.38;99076.94;6247710;27;97464;-63
2022/08/31 13:28:24;;;;;;;;;16.20;16.20;;;;;30.99;28.21;99081.31;6247547;27;96639;-58
2022/08/31 13:31:33;;;;;;;;;17.50;17.50;;;;;31.02;28.83;99072.31;6250391;27;97264;-57
2022/08/31 13:34:40;;;;;;;;;19.50;19.00;;;;;31.07;28.30;99079.59;6247894;27;98488;-58
2022/08/31 13:37:51;;;;;;;;;18.00;18.00;;;;;30.94;27.85;99046.19;6231385;27;99793;-59
2022/08/31 13:40:55;;;;;;;;;18.00;18.00;;;;;31.20;27.75;99067.25;6240506;27;97454;-62
2022/08/31 13:44:01;;;;;;;;;20.00;20.00;;;;;31.27;27.46;99065.50;6248840;27;97485;-60
2022/08/31 13:47:15;;;;;;;;;12.40;12.00;;;;;31.30;27.81;99066.75;6242717;27;97506;-62
2022/08/31 13:50:21;;;;;;;;;12.33;11.33;;;;;31.38;27.71;99068.56;6243640;27;97071;-59
2022/08/31 13:53:39;;;;;;;;;24.00;24.00;;;;;31.52;26.97;99063.38;6242126;27;97848;-60
2022/08/31 13:56:57;;;;;;;;;16.50;16.50;;;;;31.63;27.15;99067.31;6243282;27;97436;-58
2022/08/31 14:00:25;;;;;;;;;9.00;9.00;;;;;31.72;26.56;99061.56;6241465;27;96878;-57
2022/08/31 14:03:30;;;;;;;;;8.60;8.60;;;;;31.72;26.57;99062.38;6243475;27;97400;-58
2022/08/31 14:06:36;;;;;;;;;27.40;27.40;;;;;31.76;26.39;99062.50;6243528;27;97083;-60
2022/08/31 14:09:44;;;;;;;;;21.80;21.80;;;;;31.75;26.27;99053.31;6248332;27;97249;-56
2022/08/31 14:12:51;;;;;;;;;30.00;29.40;;;;;31.69;26.83;99045.56;6244911;27;97528;-60
2022/08/31 14:15:57;;;;;;;;;4.80;4.40;;;;;31.73;26.05;99052.84;6242524;27;98044;-56
2022/08/31 14:19:01;;;;;;;;;12.00;12.00;;;;;31.65;25.88;99047.47;6242069;27;97515;-60
2022/08/31 14:22:16;;;;;;;;;12.25;12.25;;;;;31.59;25.37;99044.13;6244887;27;97379;-58
2022/08/31 14:25:21;;;;;;;;;16.80;16.20;;;;;31.48;25.61;99051.34;6248080;27;97781;-58
2022/08/31 14:28:36;;;;;;;;;14.20;13.80;;;;;31.32;25.47;99039.38;6246569;27;96996;-60
2022/08/31 14:31:44;;;;;;;;;14.20;14.20;;;;;31.16;25.92;99050.44;6245383;27;97826;-55
2022/08/31 14:34:47;;;;;;;;;12.20;12.20;;;;;31.02;26.45;99052.00;6244204;27;97248;-56
2022/08/31 14:37:51;;;;;;;;;23.00;22.00;;;;;30.86;26.97;99054.69;6244020;27;97475;-60
2022/08/31 14:41:00;;;;;;;;;17.80;17.80;;;;;30.72;26.48;99045.91;6244235;27;97500;-59
2022/08/31 14:44:08;;;;;;;;;27.40;27.20;;;;;30.58;26.68;99054.63;6241866;27;98388;-59
2022/08/31 14:47:11;;;;;;;;;29.75;29.75;;;;;30.46;26.64;99049.88;6243490;27;97006;-60
2022/08/31 14:50:18;;;;;;;;;29.20;29.00;;;;;30.36;26.49;99050.31;6244225;27;97342;-56